createdAt,value
2018-03-11T00:00:38.973Z,23.90
2018-03-11T00:03:06.503Z,22.67
2018-03-11T00:05:33.869Z,24.10
2018-03-11T00:08:01.383Z,25.00
2018-03-11T00:10:28.810Z,23.50
2018-03-11T00:12:56.320Z,26.20
2018-03-11T00:15:24.497Z,24.90
2018-03-11T00:17:51.967Z,25.97
2018-03-11T00:20:19.386Z,25.27
2018-03-11T00:22:46.802Z,27.57
2018-03-11T00:25:14.218Z,26.10
2018-03-11T00:27:41.644Z,27.30
2018-03-11T00:30:09.062Z,29.00
2018-03-11T00:32:36.483Z,24.97
2018-03-11T00:35:03.949Z,27.47
2018-03-11T00:37:31.366Z,28.20
2018-03-11T00:39:58.786Z,26.10
2018-03-11T00:42:26.206Z,25.60
2018-03-11T00:44:53.621Z,26.87
2018-03-11T00:47:21.083Z,27.13
2018-03-11T00:49:48.494Z,26.03
2018-03-11T00:52:15.910Z,27.60
2018-03-11T00:54:44.097Z,30.10
2018-03-11T00:57:12.298Z,30.23
2018-03-11T00:59:40.463Z,29.13
2018-03-11T01:02:08.656Z,26.20
2018-03-11T01:04:37.278Z,26.80
2018-03-11T01:07:04.691Z,22.57
2018-03-11T01:09:32.110Z,26.20
2018-03-11T01:11:59.531Z,25.50
2018-03-11T01:14:26.959Z,24.80
2018-03-11T01:16:54.370Z,26.17
2018-03-11T01:19:22.594Z,31.50
2018-03-11T01:21:50.060Z,26.03
2018-03-11T01:24:17.532Z,25.30
2018-03-11T01:26:45.003Z,27.73
2018-03-11T01:29:12.414Z,26.00
2018-03-11T01:31:39.833Z,26.60
2018-03-11T01:34:07.272Z,29.23
2018-03-11T01:36:34.681Z,26.97
2018-03-11T01:39:02.131Z,24.80
2018-03-11T01:41:29.554Z,24.73
2018-03-11T01:43:56.958Z,24.80
2018-03-11T01:46:24.445Z,23.57
2018-03-11T01:48:51.854Z,28.27
2018-03-11T01:51:19.281Z,24.57
2018-03-11T01:53:46.750Z,26.40
2018-03-11T01:56:14.174Z,24.37
2018-03-11T01:58:41.601Z,27.43
2018-03-11T02:01:09.022Z,26.57
2018-03-11T02:03:38.130Z,27.73
2018-03-11T02:06:06.324Z,26.57
2018-03-11T02:08:34.547Z,27.37
2018-03-11T02:11:02.009Z,28.20
2018-03-11T02:13:29.426Z,24.73
2018-03-11T02:15:56.842Z,23.10
2018-03-11T02:18:24.260Z,33.33
2018-03-11T02:20:51.778Z,29.60
2018-03-11T02:23:19.187Z,31.47
2018-03-11T02:25:46.602Z,30.20
2018-03-11T02:28:14.074Z,30.17
2018-03-11T02:30:41.503Z,34.03
2018-03-11T02:33:08.922Z,27.83
2018-03-11T02:35:36.366Z,31.57
2018-03-11T02:38:04.690Z,32.00
2018-03-11T02:40:32.130Z,31.37
2018-03-11T02:42:59.607Z,31.60
2018-03-11T02:45:27.033Z,32.90
2018-03-11T02:47:54.545Z,33.90
2018-03-11T02:50:21.954Z,33.77
2018-03-11T02:52:49.489Z,32.83
2018-03-11T02:55:16.951Z,33.40
2018-03-11T02:57:44.374Z,29.13
2018-03-11T03:00:13.320Z,31.97
2018-03-11T03:02:40.754Z,30.43
2018-03-11T03:05:09.464Z,33.50
2018-03-11T03:07:38.574Z,32.63
2018-03-11T03:10:06.758Z,31.63
2018-03-11T03:12:34.958Z,29.00
2018-03-11T03:15:02.368Z,29.70
2018-03-11T03:17:29.798Z,32.83
2018-03-11T03:19:57.277Z,32.23
2018-03-11T03:22:24.706Z,30.40
2018-03-11T03:24:53.651Z,32.43
2018-03-11T03:27:21.076Z,31.70
2018-03-11T03:29:48.513Z,29.77
2018-03-11T03:32:15.934Z,30.90
2018-03-11T03:34:44.145Z,31.20
2018-03-11T03:37:11.574Z,37.03
2018-03-11T03:39:40.078Z,33.75
2018-03-11T03:42:09.210Z,38.83
2018-03-11T03:44:36.634Z,35.83
2018-03-11T03:47:04.867Z,34.23
2018-03-11T03:49:32.274Z,32.00
2018-03-11T03:51:59.798Z,33.30
2018-03-11T03:54:27.282Z,33.63
2018-03-11T03:56:54.738Z,31.87
2018-03-11T03:59:22.162Z,30.77
2018-03-11T04:01:49.567Z,29.67
2018-03-11T04:04:16.985Z,31.57
2018-03-11T04:06:44.418Z,33.50
2018-03-11T04:09:11.840Z,28.47
2018-03-11T04:11:40.754Z,35.92
2018-03-11T04:14:08.162Z,31.00
2018-03-11T04:16:35.628Z,30.20
2018-03-11T04:19:03.081Z,36.03
2018-03-11T04:21:30.497Z,32.43
2018-03-11T04:23:58.036Z,34.37
2018-03-11T04:26:25.496Z,31.90
2018-03-11T04:28:53.667Z,35.40
2018-03-11T04:31:21.847Z,34.00
2018-03-11T04:33:50.070Z,32.23
2018-03-11T04:36:17.531Z,35.20
2018-03-11T04:38:44.990Z,55.60
2018-03-11T04:41:12.407Z,35.37
2018-03-11T04:43:41.334Z,34.40
2018-03-11T04:46:10.453Z,34.70
2018-03-11T04:48:38.655Z,33.97
2018-03-11T04:51:06.160Z,31.70
2018-03-11T04:53:33.627Z,35.23
2018-03-11T04:56:01.075Z,36.73
2018-03-11T04:58:28.531Z,34.17
2018-03-11T05:00:55.958Z,36.80
2018-03-11T05:03:23.374Z,35.13
2018-03-11T05:05:50.798Z,40.70
2018-03-11T05:08:18.224Z,81.23
2018-03-11T05:10:45.662Z,50.40
2018-03-11T05:13:13.088Z,37.90
2018-03-11T05:15:41.917Z,40.92
2018-03-11T05:18:11.031Z,37.47
2018-03-11T05:20:39.247Z,36.40
2018-03-11T05:23:06.714Z,38.93
2018-03-11T05:25:34.177Z,38.60
2018-03-11T05:28:01.602Z,36.57
2018-03-11T05:30:29.108Z,38.80
2018-03-11T05:32:56.521Z,36.90
2018-03-11T05:35:23.938Z,39.30
2018-03-11T05:37:51.430Z,44.57
2018-03-11T05:40:18.862Z,42.67
2018-03-11T05:42:47.038Z,44.30
2018-03-11T05:45:15.233Z,42.83
2018-03-11T05:47:43.447Z,44.47
2018-03-11T05:50:11.785Z,46.70
2018-03-11T05:52:39.242Z,44.50
2018-03-11T05:55:06.717Z,46.50
2018-03-11T05:57:34.092Z,50.80
2018-03-11T06:00:01.606Z,44.23
2018-03-11T06:02:29.067Z,44.17
2018-03-11T06:04:56.544Z,47.47
2018-03-11T06:07:23.968Z,40.80
2018-03-11T06:09:51.383Z,49.50
2018-03-11T06:12:18.850Z,41.10
2018-03-11T06:14:46.310Z,45.17
2018-03-11T06:17:13.734Z,46.00
2018-03-11T06:19:41.157Z,46.23
2018-03-11T06:22:08.589Z,45.63
2018-03-11T06:24:36.773Z,42.10
2018-03-11T06:27:04.192Z,48.33
2018-03-11T06:29:31.615Z,46.93
2018-03-11T06:31:59.826Z,45.50
2018-03-11T06:34:27.247Z,46.10
2018-03-11T06:36:54.668Z,48.43
2018-03-11T06:39:22.125Z,51.40
2018-03-11T06:41:49.598Z,67.93
2018-03-11T06:44:16.970Z,60.90
2018-03-11T06:46:44.402Z,59.60
2018-03-11T06:49:11.925Z,52.63
2018-03-11T06:51:39.346Z,61.43
2018-03-11T06:54:07.525Z,56.27
2018-03-11T06:56:34.963Z,47.10
2018-03-11T06:59:02.388Z,51.00
2018-03-11T07:01:29.881Z,42.57
2018-03-11T07:03:57.309Z,44.83
2018-03-11T07:06:25.510Z,40.57
2018-03-11T07:08:53.712Z,43.43
2018-03-11T07:11:21.143Z,45.43
2018-03-11T07:13:48.662Z,44.70
2018-03-11T07:16:16.144Z,40.67
2018-03-11T07:18:43.609Z,39.17
2018-03-11T07:21:11.022Z,40.13
2018-03-11T07:23:38.526Z,43.10
2018-03-11T07:26:06.010Z,38.93
2018-03-11T07:28:33.442Z,39.23
2018-03-11T07:31:01.626Z,41.03
2018-03-11T07:33:29.802Z,48.43
2018-03-11T07:35:58.085Z,39.80
2018-03-11T07:38:25.490Z,42.43
2018-03-11T07:40:52.917Z,40.43
2018-03-11T07:43:21.098Z,41.90
2018-03-11T07:45:48.514Z,41.50
2018-03-11T07:48:15.975Z,39.47
2018-03-11T07:50:44.249Z,40.50
2018-03-11T07:53:12.462Z,42.13
2018-03-11T07:55:39.933Z,42.87
2018-03-11T07:58:07.362Z,38.80
2018-03-11T08:00:34.883Z,37.67
2018-03-11T08:03:02.304Z,35.37
2018-03-11T08:05:29.815Z,40.30
2018-03-11T08:07:57.274Z,37.23
2018-03-11T08:10:24.694Z,38.60
2018-03-11T08:12:52.210Z,39.20
2018-03-11T08:15:19.635Z,33.60
2018-03-11T08:17:47.149Z,34.97
2018-03-11T08:20:14.758Z,35.40
2018-03-11T08:22:42.889Z,34.80
2018-03-11T08:25:11.070Z,31.50
2018-03-11T08:27:39.274Z,32.60
2018-03-11T08:30:06.702Z,32.57
2018-03-11T08:32:34.139Z,28.07
2018-03-11T08:35:01.578Z,29.67
2018-03-11T08:37:29.000Z,30.97
2018-03-11T08:39:56.534Z,26.87
2018-03-11T08:42:23.945Z,25.93
2018-03-11T08:44:51.463Z,27.23
2018-03-11T08:47:18.869Z,22.37
2018-03-11T08:49:46.403Z,23.47
2018-03-11T08:52:13.818Z,23.63
2018-03-11T08:54:41.238Z,24.90
2018-03-11T08:57:08.653Z,23.67
2018-03-11T08:59:36.162Z,20.57
2018-03-11T09:02:03.612Z,20.20
2018-03-11T09:04:31.020Z,19.33
2018-03-11T09:06:58.474Z,18.03
2018-03-11T09:09:25.942Z,21.30
2018-03-11T09:11:53.442Z,20.50
2018-03-11T09:14:20.854Z,19.10
2018-03-11T09:16:49.081Z,21.57
2018-03-11T09:19:16.501Z,21.83
2018-03-11T09:21:44.008Z,18.80
2018-03-11T09:24:11.489Z,20.10
2018-03-11T09:26:38.955Z,20.30
2018-03-11T09:29:06.418Z,20.40
2018-03-11T09:31:33.861Z,24.67
2018-03-11T09:34:02.059Z,20.87
2018-03-11T09:36:29.490Z,18.17
2018-03-11T09:38:56.894Z,20.00
2018-03-11T09:41:24.325Z,20.27
2018-03-11T09:43:51.756Z,24.93
2018-03-11T09:46:19.230Z,17.17
2018-03-11T09:48:47.489Z,17.17
2018-03-11T09:51:14.897Z,18.97
2018-03-11T09:53:42.330Z,20.60
2018-03-11T09:56:09.762Z,17.37
2018-03-11T09:58:37.326Z,19.27
2018-03-11T10:01:04.742Z,18.73
2018-03-11T10:03:32.210Z,18.00
2018-03-11T10:05:59.674Z,19.13
2018-03-11T10:08:27.094Z,18.07
2018-03-11T10:10:54.516Z,16.60
2018-03-11T10:13:21.933Z,22.97
2018-03-11T10:15:49.346Z,20.20
2018-03-11T10:18:18.020Z,18.75
2018-03-11T10:20:47.158Z,18.47
2018-03-11T10:23:15.334Z,19.33
2018-03-11T10:25:42.825Z,21.30
2018-03-11T10:28:10.250Z,30.90
2018-03-11T10:30:38.490Z,21.90
2018-03-11T10:33:05.940Z,25.40
2018-03-11T10:35:33.413Z,23.13
2018-03-11T10:38:00.855Z,21.57
2018-03-11T10:40:29.065Z,30.30
2018-03-11T10:42:56.494Z,21.90
2018-03-11T10:45:23.918Z,21.73
2018-03-11T10:47:51.343Z,21.97
2018-03-11T10:50:18.766Z,19.83
2018-03-11T10:52:46.221Z,18.33
2018-03-11T10:55:13.654Z,18.30
2018-03-11T10:57:41.834Z,19.93
2018-03-11T11:00:10.019Z,20.73
2018-03-11T11:02:38.230Z,20.80
2018-03-11T11:05:05.671Z,21.77
2018-03-11T11:07:33.094Z,25.37
2018-03-11T11:10:00.506Z,18.97
2018-03-11T11:12:28.707Z,18.30
2018-03-11T11:14:56.135Z,19.03
2018-03-11T11:17:23.565Z,16.13
2018-03-11T11:19:50.979Z,17.90
2018-03-11T11:22:19.281Z,15.75
2018-03-11T11:24:48.401Z,15.57
2018-03-11T11:27:16.587Z,15.47
2018-03-11T11:29:44.775Z,15.07
2018-03-11T11:32:12.978Z,16.33
2018-03-11T11:34:40.449Z,14.80
2018-03-11T11:37:07.881Z,12.60
2018-03-11T11:39:35.340Z,15.23
2018-03-11T11:42:02.761Z,12.30
2018-03-11T11:44:30.326Z,13.07
2018-03-11T11:46:58.506Z,12.37
2018-03-11T11:49:25.925Z,13.53
2018-03-11T11:51:53.343Z,14.07
2018-03-11T11:54:20.761Z,15.80
2018-03-11T11:56:49.102Z,11.90
2018-03-11T11:59:16.567Z,15.20
2018-03-11T12:01:43.987Z,13.80
2018-03-11T12:04:11.414Z,14.77
2018-03-11T12:06:38.830Z,15.20
2018-03-11T12:09:06.283Z,20.83
2018-03-11T12:11:33.715Z,15.00
2018-03-11T12:14:01.135Z,15.00
2018-03-11T12:16:28.543Z,15.90
2018-03-11T12:18:55.967Z,14.47
2018-03-11T12:21:24.156Z,16.27
2018-03-11T12:23:51.578Z,17.47
2018-03-11T12:26:19.921Z,17.70
2018-03-11T12:28:47.357Z,17.17
2018-03-11T12:31:14.778Z,16.17
2018-03-11T12:33:42.990Z,20.00
2018-03-11T12:36:10.403Z,16.70
2018-03-11T12:38:37.814Z,18.50
2018-03-11T12:41:05.267Z,18.73
2018-03-11T12:43:32.883Z,23.27
2018-03-11T12:46:00.427Z,17.80
2018-03-11T12:48:28.614Z,17.30
2018-03-11T12:50:56.040Z,17.77
2018-03-11T12:53:24.990Z,18.23
2018-03-11T12:55:52.457Z,23.77
2018-03-11T12:58:21.242Z,20.17
2018-03-11T13:00:48.726Z,21.67
2018-03-11T13:03:16.910Z,19.60
2018-03-11T13:05:44.338Z,19.87
2018-03-11T13:08:11.846Z,23.77
2018-03-11T13:10:39.274Z,17.63
2018-03-11T13:13:06.803Z,19.50
2018-03-11T13:15:34.273Z,19.30
2018-03-11T13:18:01.687Z,21.63
2018-03-11T13:20:41.881Z,20.00
2018-03-11T13:23:09.315Z,22.73
2018-03-11T13:25:36.830Z,18.00
2018-03-11T13:28:16.277Z,19.70
2018-03-11T13:30:43.707Z,19.63
2018-03-11T13:33:23.207Z,20.47
2018-03-11T13:35:52.070Z,22.00
2018-03-11T13:38:33.102Z,20.80
2018-03-11T13:41:00.530Z,22.00
2018-03-11T13:43:28.718Z,21.57
2018-03-11T13:46:08.707Z,21.93
2018-03-11T13:48:36.137Z,26.33
2018-03-11T13:51:03.594Z,23.00
2018-03-11T13:53:42.927Z,24.57
2018-03-11T13:56:10.358Z,25.97
2018-03-11T13:58:44.406Z,22.77
2018-03-11T14:01:11.831Z,25.93
2018-03-11T14:03:39.327Z,22.90
2018-03-11T14:06:06.789Z,19.50
2018-03-11T14:08:34.217Z,22.77
2018-03-11T14:11:01.699Z,22.87
2018-03-11T14:13:29.874Z,30.07
2018-03-11T14:15:57.298Z,22.73
2018-03-11T14:18:24.711Z,23.40
2018-03-11T14:20:53.038Z,20.00
2018-03-11T14:23:20.506Z,28.43
2018-03-11T14:25:47.939Z,21.30
2018-03-11T14:28:15.447Z,23.10
2018-03-11T14:30:43.610Z,19.60
2018-03-11T14:33:11.790Z,20.73
2018-03-11T14:35:39.976Z,21.50
2018-03-11T14:38:08.161Z,19.50
2018-03-11T14:40:36.364Z,19.33
2018-03-11T14:43:03.842Z,22.90
2018-03-11T14:45:31.319Z,23.50
2018-03-11T14:47:58.729Z,19.20
2018-03-11T14:50:26.149Z,24.17
2018-03-11T14:52:53.570Z,21.70
2018-03-11T14:55:20.997Z,19.90
2018-03-11T14:57:48.455Z,20.30
2018-03-11T15:00:15.956Z,22.27
2018-03-11T15:02:43.369Z,18.23
2018-03-11T15:05:11.586Z,23.37
2018-03-11T15:07:39.039Z,23.73
2018-03-11T15:10:06.539Z,22.70
2018-03-11T15:12:34.022Z,22.30
2018-03-11T15:15:01.446Z,19.90
2018-03-11T15:17:29.034Z,19.73
2018-03-11T15:19:56.469Z,21.00
2018-03-11T15:22:24.666Z,23.60
2018-03-11T15:24:52.094Z,22.77
2018-03-11T15:27:19.517Z,21.73
2018-03-11T15:29:46.929Z,23.63
2018-03-11T15:32:14.380Z,24.17
2018-03-11T15:34:41.794Z,28.53
2018-03-11T15:37:09.985Z,26.27
2018-03-11T15:39:38.185Z,24.90
2018-03-11T15:42:05.616Z,26.40
2018-03-11T15:44:33.849Z,25.00
2018-03-11T15:47:01.302Z,24.17
2018-03-11T15:49:28.789Z,25.40
2018-03-11T15:51:56.206Z,33.23
2018-03-11T15:54:24.708Z,24.37
2018-03-11T15:56:52.136Z,24.10
2018-03-11T15:59:19.595Z,24.23
2018-03-11T16:01:47.046Z,27.10
2018-03-11T16:04:14.522Z,22.43
2018-03-11T16:06:41.987Z,23.93
2018-03-11T16:09:09.461Z,22.10
2018-03-11T16:11:36.929Z,24.10
2018-03-11T16:14:04.502Z,21.73
2018-03-11T16:16:32.665Z,22.10
2018-03-11T16:19:00.854Z,25.17
2018-03-11T16:21:29.062Z,21.47
2018-03-11T16:23:56.529Z,24.33
2018-03-11T16:26:24.999Z,21.80
2018-03-11T16:28:54.109Z,20.50
2018-03-11T16:31:22.416Z,22.93
2018-03-11T16:33:50.590Z,22.13
2018-03-11T16:36:18.772Z,22.80
2018-03-11T16:38:46.971Z,28.63
2018-03-11T16:41:14.446Z,25.13
2018-03-11T16:43:41.915Z,28.90
2018-03-11T16:46:09.398Z,25.00
2018-03-11T16:48:36.837Z,23.87
2018-03-11T16:51:04.326Z,31.03
2018-03-11T16:53:31.745Z,28.80
2018-03-11T16:55:59.234Z,32.50
2018-03-11T16:58:27.422Z,28.37
2018-03-11T17:00:55.601Z,28.73
2018-03-11T17:03:24.732Z,27.53
2018-03-11T17:05:52.909Z,27.70
2018-03-11T17:08:21.098Z,26.73
2018-03-11T17:10:48.597Z,29.30
2018-03-11T17:13:16.014Z,25.07
2018-03-11T17:15:43.518Z,24.90
2018-03-11T17:18:10.950Z,25.67
2018-03-11T17:20:38.400Z,24.07
2018-03-11T17:23:05.798Z,29.17
2018-03-11T17:25:33.996Z,24.33
2018-03-11T17:28:02.193Z,37.70
2018-03-11T17:30:29.622Z,34.53
2018-03-11T17:32:57.127Z,26.80
2018-03-11T17:35:26.039Z,28.33
2018-03-11T17:37:53.506Z,24.70
2018-03-11T17:40:20.930Z,26.83
2018-03-11T17:42:48.355Z,27.83
2018-03-11T17:45:15.782Z,30.50
2018-03-11T17:47:43.976Z,35.73
2018-03-11T17:50:12.184Z,38.70
2018-03-11T17:52:40.370Z,34.90
2018-03-11T17:55:08.527Z,33.10
2018-03-11T17:57:36.745Z,39.77
2018-03-11T18:00:04.169Z,34.60
2018-03-11T18:02:31.787Z,35.30
2018-03-11T18:04:59.257Z,34.30
2018-03-11T18:07:26.719Z,35.97
2018-03-11T18:09:55.826Z,35.70
2018-03-11T18:12:23.254Z,30.53
2018-03-11T18:14:50.766Z,27.83
2018-03-11T18:17:18.226Z,34.03
2018-03-11T18:19:45.643Z,26.57
2018-03-11T18:22:13.075Z,28.00
2018-03-11T18:24:40.523Z,26.83
2018-03-11T18:27:08.018Z,28.47
2018-03-11T18:29:35.583Z,29.83
2018-03-11T18:32:03.794Z,31.53
2018-03-11T18:34:31.182Z,31.30
2018-03-11T18:36:58.807Z,39.37
2018-03-11T18:39:26.997Z,39.80
2018-03-11T18:41:54.482Z,45.40
2018-03-11T18:44:22.649Z,41.80
2018-03-11T18:46:50.128Z,36.23
2018-03-11T18:49:17.564Z,37.87
2018-03-11T18:51:45.861Z,33.87
2018-03-11T18:54:13.274Z,38.10
2018-03-11T18:56:40.713Z,39.47
2018-03-11T18:59:08.136Z,33.37
2018-03-11T19:01:35.669Z,28.33
2018-03-11T19:04:03.082Z,31.43
2018-03-11T19:06:31.349Z,33.03
2018-03-11T19:08:58.734Z,29.03
2018-03-11T19:11:27.441Z,32.95
2018-03-11T19:13:56.545Z,35.87
2018-03-11T19:16:24.733Z,40.20
2018-03-11T19:18:52.951Z,37.20
2018-03-11T19:21:20.414Z,29.40
2018-03-11T19:23:47.882Z,28.90
2018-03-11T19:26:15.303Z,27.50
2018-03-11T19:28:43.501Z,47.57
2018-03-11T19:31:10.929Z,26.63
2018-03-11T19:33:38.340Z,22.20
2018-03-11T19:36:05.747Z,21.80
2018-03-11T19:38:33.223Z,22.00
2018-03-11T19:41:00.634Z,21.23
2018-03-11T19:43:28.069Z,16.20
2018-03-11T19:45:55.485Z,15.97
2018-03-11T19:48:23.710Z,14.37
2018-03-11T19:50:51.127Z,14.43
2018-03-11T19:53:18.558Z,13.30
2018-03-11T19:55:45.963Z,12.10
2018-03-11T19:58:13.366Z,12.57
2018-03-11T20:00:40.846Z,13.80
2018-03-11T20:03:08.298Z,12.47
2018-03-11T20:05:35.779Z,11.23
2018-03-11T20:08:03.250Z,18.43
2018-03-11T20:10:30.660Z,16.23
2018-03-11T20:12:58.069Z,8.90
2018-03-11T20:15:25.544Z,9.90
2018-03-11T20:17:53.022Z,7.20
2018-03-11T20:20:20.482Z,7.83
2018-03-11T20:22:47.893Z,6.33
2018-03-11T20:25:15.327Z,7.60
2018-03-11T20:27:42.734Z,7.80
2018-03-11T20:30:11.055Z,5.87
2018-03-11T20:32:39.171Z,6.90
2018-03-11T20:35:06.625Z,7.10
2018-03-11T20:37:34.928Z,5.83
2018-03-11T20:40:03.084Z,6.80
2018-03-11T20:42:31.291Z,9.90
2018-03-11T20:44:58.765Z,8.90
2018-03-11T20:47:26.165Z,9.70
2018-03-11T20:49:53.581Z,8.40
2018-03-11T20:52:21.786Z,9.87
2018-03-11T20:54:49.242Z,8.97
2018-03-11T20:57:16.726Z,12.83
2018-03-11T20:59:44.151Z,16.00
2018-03-11T21:02:11.654Z,17.40
2018-03-11T21:04:39.092Z,21.37
2018-03-11T21:07:08.049Z,19.13
2018-03-11T21:09:36.224Z,17.23
2018-03-11T21:12:03.623Z,14.87
2018-03-11T21:14:31.058Z,23.07
2018-03-11T21:16:59.398Z,17.27
2018-03-11T21:19:26.914Z,12.97
2018-03-11T21:21:54.326Z,10.90
2018-03-11T21:24:21.747Z,17.47
2018-03-11T21:26:49.220Z,15.83
2018-03-11T21:29:16.653Z,16.00
2018-03-11T21:31:44.174Z,13.30
2018-03-11T21:34:13.473Z,15.90
2018-03-11T21:36:41.630Z,23.73
2018-03-11T21:39:09.839Z,21.20
2018-03-11T21:41:37.262Z,14.50
2018-03-11T21:44:06.202Z,16.73
2018-03-11T21:46:33.641Z,18.53
2018-03-11T21:49:01.063Z,20.00
2018-03-11T21:51:30.026Z,24.60
2018-03-11T21:53:59.135Z,18.43
2018-03-11T21:56:26.549Z,17.60
2018-03-11T21:58:53.977Z,44.47
2018-03-11T22:01:22.157Z,34.20
2018-03-11T22:03:50.341Z,24.47
2018-03-11T22:06:18.518Z,19.37
2018-03-11T22:08:46.048Z,27.03
2018-03-11T22:11:13.455Z,27.73
2018-03-11T22:13:40.963Z,23.63
2018-03-11T22:16:08.381Z,22.53
2018-03-11T22:18:35.903Z,21.03
2018-03-11T22:21:03.351Z,23.97
2018-03-11T22:23:31.554Z,24.70
2018-03-11T22:26:00.529Z,24.20
2018-03-11T22:28:27.950Z,21.37
2018-03-11T22:30:55.362Z,16.53
2018-03-11T22:33:22.867Z,17.90
2018-03-11T22:35:50.335Z,28.30
2018-03-11T22:38:17.769Z,34.07
2018-03-11T22:40:45.270Z,32.17
2018-03-11T22:43:12.745Z,26.20
2018-03-11T22:45:40.128Z,25.03
2018-03-11T22:48:07.607Z,29.07
2018-03-11T22:50:35.131Z,19.30
2018-03-11T22:53:03.342Z,22.40
2018-03-11T22:55:30.798Z,26.43
2018-03-11T22:57:58.225Z,21.23
2018-03-11T23:00:25.639Z,18.07
2018-03-11T23:02:53.065Z,20.33
2018-03-11T23:05:20.487Z,21.40
2018-03-11T23:07:47.902Z,23.10
2018-03-11T23:10:15.333Z,19.90
2018-03-11T23:12:42.751Z,20.67
2018-03-11T23:15:10.938Z,20.07
2018-03-11T23:17:39.137Z,25.93
2018-03-11T23:20:07.322Z,19.60
2018-03-11T23:22:35.506Z,19.23
2018-03-11T23:25:03.703Z,16.20
2018-03-11T23:27:31.186Z,19.37
2018-03-11T23:29:58.646Z,16.60
2018-03-11T23:32:26.133Z,17.43
2018-03-11T23:34:53.591Z,17.20
2018-03-11T23:37:21.046Z,17.97
2018-03-11T23:39:48.470Z,21.83
2018-03-11T23:42:15.878Z,25.87
2018-03-11T23:44:44.059Z,22.10
2018-03-11T23:47:12.270Z,23.60
2018-03-11T23:49:39.695Z,22.93
2018-03-11T23:52:07.866Z,22.33
2018-03-11T23:54:35.290Z,20.43
2018-03-11T23:57:02.725Z,20.77
2018-03-11T23:59:30.225Z,21.53
